sensor_id;sensor_type;location;lat;lon;timestamp;pressure;altitude;pressure_sealevel;temperature;humidity
63901;BME280;50538;53.482;10.294;2023-05-22T00:05:52;101269.34;;;19.31;69.87
63901;BME280;50538;53.482;10.294;2023-05-22T00:15:57;101256.72;;;19.18;70.64
63901;BME280;50538;53.482;10.294;2023-05-22T00:25:58;101259.00;;;19.08;69.57
63901;BME280;50538;53.482;10.294;2023-05-22T00:35:59;101245.75;;;19.00;70.13
63901;BME280;50538;53.482;10.294;2023-05-22T00:45:59;101255.09;;;18.91;69.23
63901;BME280;50538;53.482;10.294;2023-05-22T00:56:00;101252.81;;;18.81;69.33
63901;BME280;50538;53.482;10.294;2023-05-22T01:06:00;101255.28;;;18.69;69.60
63901;BME280;50538;53.482;10.294;2023-05-22T01:16:04;101256.75;;;18.59;69.70
63901;BME280;50538;53.482;10.294;2023-05-22T01:36:53;101242.84;;;18.35;70.19
63901;BME280;50538;53.482;10.294;2023-05-22T01:46:54;101242.78;;;18.22;70.45
63901;BME280;50538;53.482;10.294;2023-05-22T01:57:15;101235.50;;;18.09;70.28
63901;BME280;50538;53.482;10.294;2023-05-22T02:07:20;101243.16;;;17.99;70.40
63901;BME280;50538;53.482;10.294;2023-05-22T02:17:21;101233.38;;;17.85;70.57
63901;BME280;50538;53.482;10.294;2023-05-22T02:27:22;101213.09;;;17.76;71.43
63901;BME280;50538;53.482;10.294;2023-05-22T02:37:22;101211.41;;;17.68;72.56
63901;BME280;50538;53.482;10.294;2023-05-22T02:47:22;101214.06;;;17.62;70.22
63901;BME280;50538;53.482;10.294;2023-05-22T02:57:23;101204.97;;;17.56;71.88
63901;BME280;50538;53.482;10.294;2023-05-22T03:07:24;101191.94;;;17.53;70.70
63901;BME280;50538;53.482;10.294;2023-05-22T03:17:25;101184.47;;;17.48;70.62
63901;BME280;50538;53.482;10.294;2023-05-22T03:27:26;101192.31;;;17.43;70.66
63901;BME280;50538;53.482;10.294;2023-05-22T03:37:26;101188.38;;;17.39;71.07
63901;BME280;50538;53.482;10.294;2023-05-22T03:47:26;101189.41;;;17.38;70.91
63901;BME280;50538;53.482;10.294;2023-05-22T03:57:27;101185.06;;;17.37;70.68
63901;BME280;50538;53.482;10.294;2023-05-22T04:07:27;101184.88;;;17.39;70.20
63901;BME280;50538;53.482;10.294;2023-05-22T04:17:30;101182.00;;;17.47;69.72
63901;BME280;50538;53.482;10.294;2023-05-22T04:27:34;101176.50;;;17.68;69.50
63901;BME280;50538;53.482;10.294;2023-05-22T04:37:34;101179.91;;;17.97;68.86
63901;BME280;50538;53.482;10.294;2023-05-22T04:47:35;101174.13;;;18.26;67.58
63901;BME280;50538;53.482;10.294;2023-05-22T04:57:38;101176.69;;;18.47;66.08
63901;BME280;50538;53.482;10.294;2023-05-22T05:07:38;101173.53;;;18.64;65.43
63901;BME280;50538;53.482;10.294;2023-05-22T05:17:39;101174.97;;;18.86;64.79
63901;BME280;50538;53.482;10.294;2023-05-22T05:27:40;101176.59;;;19.13;63.49
63901;BME280;50538;53.482;10.294;2023-05-22T05:37:40;101169.69;;;19.37;62.32
63901;BME280;50538;53.482;10.294;2023-05-22T05:47:40;101174.72;;;19.72;61.88
63901;BME280;50538;53.482;10.294;2023-05-22T05:57:41;101178.25;;;20.04;60.08
63901;BME280;50538;53.482;10.294;2023-05-22T06:07:41;101167.25;;;20.37;59.24
63901;BME280;50538;53.482;10.294;2023-05-22T06:17:42;101161.69;;;20.57;60.03
63901;BME280;50538;53.482;10.294;2023-05-22T06:27:42;101157.28;;;20.87;57.61
63901;BME280;50538;53.482;10.294;2023-05-22T06:37:43;101156.84;;;21.27;56.39
63901;BME280;50538;53.482;10.294;2023-05-22T06:47:43;101161.94;;;21.83;55.50
63901;BME280;50538;53.482;10.294;2023-05-22T06:57:43;101157.94;;;22.16;53.75
63901;BME280;50538;53.482;10.294;2023-05-22T07:07:44;101162.94;;;22.54;53.37
63901;BME280;50538;53.482;10.294;2023-05-22T07:17:44;101156.22;;;23.15;51.52
63901;BME280;50538;53.482;10.294;2023-05-22T07:27:45;101147.78;;;23.39;51.01
63901;BME280;50538;53.482;10.294;2023-05-22T07:37:45;101145.56;;;23.77;49.11
63901;BME280;50538;53.482;10.294;2023-05-22T07:47:46;101145.81;;;24.54;47.54
63901;BME280;50538;53.482;10.294;2023-05-22T07:57:46;101140.88;;;25.06;46.68
63901;BME280;50538;53.482;10.294;2023-05-22T08:07:46;101141.50;;;25.35;44.78
63901;BME280;50538;53.482;10.294;2023-05-22T08:17:47;101142.69;;;25.66;45.02
63901;BME280;50538;53.482;10.294;2023-05-22T08:27:47;101133.75;;;26.29;43.56
63901;BME280;50538;53.482;10.294;2023-05-22T08:37:47;101133.09;;;26.91;41.12
63901;BME280;50538;53.482;10.294;2023-05-22T08:47:51;101125.66;;;27.24;41.73
63901;BME280;50538;53.482;10.294;2023-05-22T08:57:55;101116.41;;;27.40;40.96
63901;BME280;50538;53.482;10.294;2023-05-22T09:07:56;101101.00;;;28.07;40.40
63901;BME280;50538;53.482;10.294;2023-05-22T09:17:57;101089.22;;;28.47;38.75
63901;BME280;50538;53.482;10.294;2023-05-22T09:27:58;101088.03;;;28.93;37.09
63901;BME280;50538;53.482;10.294;2023-05-22T09:37:58;101085.19;;;29.14;36.46
63901;BME280;50538;53.482;10.294;2023-05-22T09:47:58;101078.03;;;29.23;36.81
63901;BME280;50538;53.482;10.294;2023-05-22T09:58:02;101066.78;;;29.29;37.01
63901;BME280;50538;53.482;10.294;2023-05-22T10:08:09;101058.81;;;29.77;34.73
63901;BME280;50538;53.482;10.294;2023-05-22T10:18:10;101034.25;;;30.01;35.45
63901;BME280;50538;53.482;10.294;2023-05-22T10:28:15;101022.75;;;30.57;35.34
63901;BME280;50538;53.482;10.294;2023-05-22T10:48:47;100991.00;;;31.69;34.45
63901;BME280;50538;53.482;10.294;2023-05-22T10:58:55;100992.91;;;31.87;32.31
63901;BME280;50538;53.482;10.294;2023-05-22T11:08:55;100991.19;;;32.05;30.75
63901;BME280;50538;53.482;10.294;2023-05-22T11:19:02;100980.69;;;32.39;30.71
63901;BME280;50538;53.482;10.294;2023-05-22T11:29:06;100967.75;;;31.80;31.94
63901;BME280;50538;53.482;10.294;2023-05-22T11:39:06;100975.63;;;32.14;32.07
63901;BME280;50538;53.482;10.294;2023-05-22T11:49:08;100951.69;;;32.97;30.40
63901;BME280;50538;53.482;10.294;2023-05-22T11:59:12;100931.75;;;33.58;34.69
63901;BME280;50538;53.482;10.294;2023-05-22T12:09:12;100925.28;;;33.40;28.24
63901;BME280;50538;53.482;10.294;2023-05-22T12:19:13;100906.09;;;33.27;28.97
63901;BME280;50538;53.482;10.294;2023-05-22T12:29:13;100907.63;;;33.64;37.37
63901;BME280;50538;53.482;10.294;2023-05-22T12:39:17;100901.38;;;33.80;29.51
63901;BME280;50538;53.482;10.294;2023-05-22T12:49:18;100889.69;;;34.06;28.73
63901;BME280;50538;53.482;10.294;2023-05-22T12:59:18;100886.31;;;34.09;30.36
63901;BME280;50538;53.482;10.294;2023-05-22T13:09:19;100869.72;;;34.00;26.17
63901;BME280;50538;53.482;10.294;2023-05-22T13:19:20;100869.03;;;33.95;28.30
63901;BME280;50538;53.482;10.294;2023-05-22T13:29:20;100856.50;;;34.28;30.61
63901;BME280;50538;53.482;10.294;2023-05-22T13:39:20;100846.19;;;34.60;28.56
63901;BME280;50538;53.482;10.294;2023-05-22T13:49:21;100832.50;;;34.37;28.04
63901;BME280;50538;53.482;10.294;2023-05-22T13:59:22;100812.44;;;33.80;25.37
63901;BME280;50538;53.482;10.294;2023-05-22T14:09:23;100795.22;;;33.35;31.16
63901;BME280;50538;53.482;10.294;2023-05-22T14:19:23;100788.88;;;32.95;29.55
63901;BME280;50538;53.482;10.294;2023-05-22T14:29:24;100769.13;;;33.32;29.61
63901;BME280;50538;53.482;10.294;2023-05-22T14:39:25;100753.75;;;33.31;30.26
63901;BME280;50538;53.482;10.294;2023-05-22T14:49:25;100747.16;;;32.79;30.86
63901;BME280;50538;53.482;10.294;2023-05-22T14:59:25;100751.22;;;31.87;32.82
63901;BME280;50538;53.482;10.294;2023-05-22T15:09:26;100762.25;;;31.13;33.74
63901;BME280;50538;53.482;10.294;2023-05-22T15:19:26;100770.38;;;30.53;33.17
63901;BME280;50538;53.482;10.294;2023-05-22T15:29:26;100758.88;;;29.95;35.00
63901;BME280;50538;53.482;10.294;2023-05-22T15:39:28;100751.72;;;29.51;35.79
63901;BME280;50538;53.482;10.294;2023-05-22T15:49:28;100740.69;;;29.09;36.97
63901;BME280;50538;53.482;10.294;2023-05-22T15:59:29;100765.63;;;28.68;34.38
63901;BME280;50538;53.482;10.294;2023-05-22T16:09:29;100800.38;;;27.13;43.97
63901;BME280;50538;53.482;10.294;2023-05-22T16:19:29;100835.53;;;25.17;52.28
63901;BME280;50538;53.482;10.294;2023-05-22T16:29:32;100820.69;;;23.73;62.42
63901;BME280;50538;53.482;10.294;2023-05-22T16:39:32;100849.34;;;22.86;65.81
63901;BME280;50538;53.482;10.294;2023-05-22T16:49:33;100863.53;;;22.36;69.49
63901;BME280;50538;53.482;10.294;2023-05-22T16:59:34;100863.78;;;21.94;73.09
63901;BME280;50538;53.482;10.294;2023-05-22T17:09:34;100858.22;;;21.66;75.76
63901;BME280;50538;53.482;10.294;2023-05-22T17:19:35;100842.16;;;21.36;75.61
63901;BME280;50538;53.482;10.294;2023-05-22T17:29:35;100827.25;;;21.45;75.41
63901;BME280;50538;53.482;10.294;2023-05-22T17:39:36;100856.25;;;21.50;75.55
63901;BME280;50538;53.482;10.294;2023-05-22T17:49:38;100893.22;;;21.26;76.68
63901;BME280;50538;53.482;10.294;2023-05-22T17:59:38;100932.66;;;20.67;81.79
63901;BME280;50538;53.482;10.294;2023-05-22T18:09:38;100949.94;;;20.04;85.27
63901;BME280;50538;53.482;10.294;2023-05-22T18:19:39;100954.53;;;19.79;85.78
63901;BME280;50538;53.482;10.294;2023-05-22T18:29:39;100927.59;;;19.79;83.31
63901;BME280;50538;53.482;10.294;2023-05-22T18:39:39;100901.19;;;19.88;83.08
63901;BME280;50538;53.482;10.294;2023-05-22T18:49:40;100875.06;;;19.88;83.06
63901;BME280;50538;53.482;10.294;2023-05-22T18:59:40;100853.94;;;19.85;82.87
63901;BME280;50538;53.482;10.294;2023-05-22T19:09:41;100841.91;;;19.69;81.05
63901;BME280;50538;53.482;10.294;2023-05-22T19:19:41;100853.63;;;19.57;79.53
63901;BME280;50538;53.482;10.294;2023-05-22T19:29:42;100847.75;;;19.41;80.68
63901;BME280;50538;53.482;10.294;2023-05-22T19:39:42;100888.88;;;19.24;80.19
63901;BME280;50538;53.482;10.294;2023-05-22T19:49:42;100958.38;;;19.08;84.21
63901;BME280;50538;53.482;10.294;2023-05-22T19:59:43;100989.56;;;18.78;91.70
63901;BME280;50538;53.482;10.294;2023-05-22T20:09:43;101019.88;;;18.54;95.02
63901;BME280;50538;53.482;10.294;2023-05-22T20:19:44;101042.44;;;18.39;95.43
63901;BME280;50538;53.482;10.294;2023-05-22T20:29:46;101025.06;;;18.35;91.40
63901;BME280;50538;53.482;10.294;2023-05-22T20:39:49;101009.75;;;18.49;90.01
63901;BME280;50538;53.482;10.294;2023-05-22T20:49:50;101003.94;;;18.59;89.30
63901;BME280;50538;53.482;10.294;2023-05-22T20:59:53;101002.44;;;18.63;88.73
63901;BME280;50538;53.482;10.294;2023-05-22T21:09:54;100988.41;;;18.61;87.23
63901;BME280;50538;53.482;10.294;2023-05-22T21:19:54;100989.25;;;18.55;88.62
63901;BME280;50538;53.482;10.294;2023-05-22T21:29:54;100972.31;;;18.47;88.26
63901;BME280;50538;53.482;10.294;2023-05-22T21:39:55;100965.09;;;18.41;88.91
63901;BME280;50538;53.482;10.294;2023-05-22T21:49:55;100953.72;;;18.39;89.48
63901;BME280;50538;53.482;10.294;2023-05-22T21:59:55;100922.50;;;18.25;89.84
63901;BME280;50538;53.482;10.294;2023-05-22T22:09:57;100911.56;;;18.13;90.01
63901;BME280;50538;53.482;10.294;2023-05-22T22:19:57;100894.63;;;18.06;90.28
63901;BME280;50538;53.482;10.294;2023-05-22T22:29:58;100879.16;;;18.02;88.71
63901;BME280;50538;53.482;10.294;2023-05-22T22:39:58;100878.56;;;18.00;89.20
63901;BME280;50538;53.482;10.294;2023-05-22T22:49:58;100855.41;;;17.99;89.13
63901;BME280;50538;53.482;10.294;2023-05-22T22:59:59;100844.47;;;17.94;89.19
63901;BME280;50538;53.482;10.294;2023-05-22T23:09:59;100837.25;;;17.88;88.16
63901;BME280;50538;53.482;10.294;2023-05-22T23:19:59;100823.41;;;17.84;87.83
63901;BME280;50538;53.482;10.294;2023-05-22T23:30:00;100808.34;;;17.76;90.79
63901;BME280;50538;53.482;10.294;2023-05-22T23:40:00;100797.84;;;17.68;91.38
63901;BME280;50538;53.482;10.294;2023-05-22T23:50:00;100805.28;;;17.60;90.27
